Time;durP1;ratioP1;P1;durP2;ratioP2;P2;SDS_P1;SDS_P2;PMS_P1;PMS_P2;Temp;Humidity;BMP_temperature;BMP_pressure;BME280_temperature;BME280_humidity;BME280_pressure;Samples;Min_cycle;Max_cycle;Signal;HPM_P1;HPM_P2
2023/10/23 00:01:41;;;;;;;19.73;15.95;;;;;;;;;;5024414;28;25071;-59
2023/10/23 00:04:07;;;;;;;18.40;15.65;;;;;;;;;;5036307;28;25141;-59
2023/10/23 00:06:34;;;;;;;19.83;14.65;;;;;;;;;;5042721;28;25128;-59
2023/10/23 00:09:00;;;;;;;18.77;14.77;;;;;;;;;;5044165;28;25062;-59
2023/10/23 00:11:27;;;;;;;19.05;15.93;;;;;;;;;;5043442;28;25082;-59
2023/10/23 00:13:53;;;;;;;19.70;16.15;;;;;;;;;;5050058;28;25123;-59
2023/10/23 00:16:20;;;;;;;20.08;15.65;;;;;;;;;;5043245;28;25077;-61
2023/10/23 00:18:46;;;;;;;20.33;16.52;;;;;;;;;;5038173;28;25041;-59
2023/10/23 00:21:13;;;;;;;18.75;14.20;;;;;;;;;;5044658;28;25076;-60
2023/10/23 00:23:39;;;;;;;20.77;16.70;;;;;;;;;;5039682;28;25057;-60
2023/10/23 00:26:08;;;;;;;20.13;17.83;;;;;;;;;;5038289;28;25075;-60
2023/10/23 00:28:34;;;;;;;19.77;16.50;;;;;;;;;;5043268;28;25049;-60
2023/10/23 00:31:00;;;;;;;23.75;17.67;;;;;;;;;;5038239;28;25083;-58
2023/10/23 00:33:26;;;;;;;32.92;25.27;;;;;;;;;;5042006;28;25134;-59
2023/10/23 00:35:52;;;;;;;24.45;19.23;;;;;;;;;;5044738;28;25082;-58
2023/10/23 00:38:18;;;;;;;24.90;18.50;;;;;;;;;;5039928;28;25080;-61
2023/10/23 00:40:45;;;;;;;25.55;18.20;;;;;;;;;;5034054;28;25048;-59
2023/10/23 00:43:31;;;;;;;23.75;18.05;;;;;;;;;;5043229;28;25052;-59
2023/10/23 00:45:58;;;;;;;27.10;19.15;;;;;;;;;;5040041;28;25126;-60
2023/10/23 00:48:25;;;;;;;22.13;17.88;;;;;;;;;;5044995;28;25071;-59
2023/10/23 00:50:52;;;;;;;26.77;20.35;;;;;;;;;;5046929;28;25099;-59
2023/10/23 00:53:18;;;;;;;24.77;19.23;;;;;;;;;;5047401;28;25062;-61
2023/10/23 00:55:45;;;;;;;22.38;18.98;;;;;;;;;;5046272;28;25101;-58
2023/10/23 00:58:12;;;;;;;25.73;18.60;;;;;;;;;;5044542;28;25095;-59
2023/10/23 01:00:39;;;;;;;26.50;18.20;;;;;;;;;;5044170;28;25115;-59
2023/10/23 01:03:05;;;;;;;26.83;18.67;;;;;;;;;;5046280;28;25085;-58
2023/10/23 01:05:31;;;;;;;23.65;18.17;;;;;;;;;;5043394;28;25065;-59
2023/10/23 01:07:57;;;;;;;27.98;20.17;;;;;;;;;;5043356;28;25050;-58
2023/10/23 01:10:23;;;;;;;26.10;20.67;;;;;;;;;;5044220;28;25130;-60
2023/10/23 01:12:49;;;;;;;28.48;21.35;;;;;;;;;;5043060;28;25148;-59
2023/10/23 01:15:15;;;;;;;32.15;22.50;;;;;;;;;;5040952;28;25071;-60
2023/10/23 01:17:40;;;;;;;23.73;20.02;;;;;;;;;;5039771;28;25051;-58
2023/10/23 01:20:09;;;;;;;29.80;22.45;;;;;;;;;;5046952;28;25117;-60
2023/10/23 01:22:35;;;;;;;26.13;21.33;;;;;;;;;;5042984;28;25049;-59
2023/10/23 01:25:02;;;;;;;27.73;21.63;;;;;;;;;;5045401;28;25059;-59
2023/10/23 01:27:28;;;;;;;29.50;20.10;;;;;;;;;;5042440;28;25064;-59
2023/10/23 01:29:54;;;;;;;28.98;21.15;;;;;;;;;;5037092;28;25066;-58
2023/10/23 01:32:21;;;;;;;33.75;24.90;;;;;;;;;;5045930;28;25073;-59
2023/10/23 01:34:47;;;;;;;32.35;21.25;;;;;;;;;;5045171;28;25145;-58
2023/10/23 01:37:13;;;;;;;27.10;19.55;;;;;;;;;;5044159;28;25074;-58
2023/10/23 01:39:39;;;;;;;34.85;24.15;;;;;;;;;;5044396;28;25160;-60
2023/10/23 01:42:05;;;;;;;35.50;25.25;;;;;;;;;;5037343;28;25060;-59
2023/10/23 01:44:31;;;;;;;36.85;24.23;;;;;;;;;;5043059;28;25102;-59
2023/10/23 01:46:57;;;;;;;33.10;24.80;;;;;;;;;;5044136;28;25057;-59
2023/10/23 01:49:23;;;;;;;29.65;22.40;;;;;;;;;;5042688;28;25061;-61
2023/10/23 01:51:49;;;;;;;30.83;23.05;;;;;;;;;;5040105;28;25066;-58
2023/10/23 01:54:15;;;;;;;29.98;20.02;;;;;;;;;;5039484;28;25049;-59
2023/10/23 01:56:41;;;;;;;25.27;18.95;;;;;;;;;;5025050;28;25072;-59
2023/10/23 01:59:07;;;;;;;27.17;21.75;;;;;;;;;;5038399;28;25062;-59
2023/10/23 02:01:37;;;;;;;36.95;23.02;;;;;;;;;;5042335;28;25074;-60
2023/10/23 02:04:03;;;;;;;37.47;25.52;;;;;;;;;;5040856;28;25054;-60
2023/10/23 02:06:29;;;;;;;37.45;26.38;;;;;;;;;;5037973;28;25051;-58
2023/10/23 02:08:55;;;;;;;30.88;23.17;;;;;;;;;;5043714;28;25072;-59
2023/10/23 02:11:21;;;;;;;27.33;21.38;;;;;;;;;;5045129;28;25134;-59
2023/10/23 02:13:47;;;;;;;35.78;24.15;;;;;;;;;;5046052;28;25064;-59
2023/10/23 02:16:13;;;;;;;33.55;21.83;;;;;;;;;;5040926;28;25128;-58
2023/10/23 02:18:39;;;;;;;31.85;21.42;;;;;;;;;;5034172;28;25078;-59
2023/10/23 02:21:05;;;;;;;29.55;20.90;;;;;;;;;;5018996;28;25157;-59
2023/10/23 02:23:32;;;;;;;28.88;22.50;;;;;;;;;;5017530;28;25062;-59
2023/10/23 02:25:58;;;;;;;32.67;22.63;;;;;;;;;;5024133;28;25072;-59
2023/10/23 02:28:24;;;;;;;26.00;20.00;;;;;;;;;;5024005;28;25152;-61
2023/10/23 02:30:50;;;;;;;30.67;23.05;;;;;;;;;;5021948;28;25069;-60
2023/10/23 02:33:16;;;;;;;25.45;19.90;;;;;;;;;;5023815;28;25186;-59
2023/10/23 02:35:43;;;;;;;26.25;20.58;;;;;;;;;;5021083;28;25108;-59
2023/10/23 02:38:09;;;;;;;33.17;23.60;;;;;;;;;;5018616;28;25047;-60
2023/10/23 02:40:35;;;;;;;27.27;20.50;;;;;;;;;;5020486;28;25071;-60
2023/10/23 02:43:01;;;;;;;28.92;21.63;;;;;;;;;;5022251;28;25045;-60
2023/10/23 02:45:27;;;;;;;32.08;20.98;;;;;;;;;;5017351;28;25076;-59
2023/10/23 02:47:53;;;;;;;32.50;21.77;;;;;;;;;;5024032;28;25071;-60
2023/10/23 02:50:20;;;;;;;27.00;20.15;;;;;;;;;;5022882;28;25077;-60
2023/10/23 02:52:46;;;;;;;27.20;19.88;;;;;;;;;;5021806;28;25147;-60
2023/10/23 02:55:12;;;;;;;27.30;19.65;;;;;;;;;;5023483;28;25065;-60
2023/10/23 02:57:38;;;;;;;27.00;18.95;;;;;;;;;;5023551;28;25096;-58
2023/10/23 03:00:05;;;;;;;37.97;22.60;;;;;;;;;;5023482;28;25057;-59
2023/10/23 03:02:33;;;;;;;33.78;20.88;;;;;;;;;;5023273;28;25099;-60
2023/10/23 03:04:59;;;;;;;29.67;22.15;;;;;;;;;;5018959;28;25092;-59
2023/10/23 03:07:24;;;;;;;28.92;20.20;;;;;;;;;;5022693;28;25087;-60
2023/10/23 03:09:51;;;;;;;29.05;20.92;;;;;;;;;;5023706;28;25150;-59
2023/10/23 03:12:16;;;;;;;23.85;19.55;;;;;;;;;;5027398;28;25056;-59
2023/10/23 03:14:43;;;;;;;22.20;17.90;;;;;;;;;;5028608;28;25076;-59
2023/10/23 03:17:08;;;;;;;29.38;18.70;;;;;;;;;;5024314;28;25071;-59
2023/10/23 03:19:34;;;;;;;33.65;19.73;;;;;;;;;;5020077;28;25060;-60
2023/10/23 03:22:00;;;;;;;30.27;22.15;;;;;;;;;;5030094;28;25100;-59
2023/10/23 03:24:26;;;;;;;34.53;21.40;;;;;;;;;;5023695;28;25067;-59
2023/10/23 03:26:53;;;;;;;28.27;19.42;;;;;;;;;;5023313;28;25084;-59
2023/10/23 03:29:19;;;;;;;29.65;20.73;;;;;;;;;;5022026;28;25101;-59
2023/10/23 03:31:45;;;;;;;26.92;19.45;;;;;;;;;;5023877;28;25078;-59
2023/10/23 03:34:11;;;;;;;33.90;20.55;;;;;;;;;;5024515;28;25072;-60
2023/10/23 03:36:37;;;;;;;24.48;18.55;;;;;;;;;;5026925;28;25049;-60
2023/10/23 03:39:03;;;;;;;29.02;20.80;;;;;;;;;;5021820;28;25054;-59
2023/10/23 03:41:29;;;;;;;32.15;20.35;;;;;;;;;;5019657;28;25060;-59
2023/10/23 03:43:55;;;;;;;24.10;17.60;;;;;;;;;;5022204;28;25060;-60
2023/10/23 03:46:21;;;;;;;28.85;20.05;;;;;;;;;;5037994;28;25067;-61
2023/10/23 03:48:47;;;;;;;26.33;19.42;;;;;;;;;;5047104;28;25055;-59
2023/10/23 03:51:13;;;;;;;28.58;20.73;;;;;;;;;;5042975;28;25073;-60
2023/10/23 03:53:39;;;;;;;27.55;20.35;;;;;;;;;;5044716;28;25147;-60
2023/10/23 03:56:06;;;;;;;36.45;22.83;;;;;;;;;;5043933;28;25152;-60
2023/10/23 03:58:32;;;;;;;36.45;22.27;;;;;;;;;;5046600;28;25080;-61
2023/10/23 04:00:58;;;;;;;31.45;21.45;;;;;;;;;;5043454;28;25138;-60
2023/10/23 04:03:24;;;;;;;32.70;21.50;;;;;;;;;;5038336;28;25070;-59
2023/10/23 04:05:50;;;;;;;36.60;22.73;;;;;;;;;;5049692;28;25163;-60
2023/10/23 04:08:16;;;;;;;31.65;22.00;;;;;;;;;;5046233;28;25062;-59
2023/10/23 04:10:46;;;;;;;33.53;23.17;;;;;;;;;;5044196;28;25049;-58
2023/10/23 04:13:12;;;;;;;32.03;22.17;;;;;;;;;;5042445;28;25075;-59
2023/10/23 04:15:39;;;;;;;34.85;24.25;;;;;;;;;;5044222;28;25072;-60
2023/10/23 04:18:05;;;;;;;36.78;23.60;;;;;;;;;;5039807;28;25064;-59
2023/10/23 04:20:31;;;;;;;33.53;22.52;;;;;;;;;;5047078;28;25087;-59
2023/10/23 04:22:57;;;;;;;34.75;22.95;;;;;;;;;;5047492;28;25127;-60
2023/10/23 04:25:23;;;;;;;42.88;26.35;;;;;;;;;;5045580;28;25056;-60
2023/10/23 04:27:49;;;;;;;38.47;24.65;;;;;;;;;;5044770;28;25072;-60
2023/10/23 04:30:16;;;;;;;36.60;25.38;;;;;;;;;;5043773;28;25079;-60
2023/10/23 04:32:42;;;;;;;25.52;17.92;;;;;;;;;;5041206;28;25087;-60
2023/10/23 04:35:08;;;;;;;33.15;23.67;;;;;;;;;;5039754;28;25080;-58
2023/10/23 04:37:34;;;;;;;39.58;25.27;;;;;;;;;;5046895;28;25166;-60
2023/10/23 04:40:00;;;;;;;38.75;25.48;;;;;;;;;;5041836;28;25043;-60
2023/10/23 04:42:26;;;;;;;38.03;25.10;;;;;;;;;;5039440;28;25082;-59
2023/10/23 04:44:52;;;;;;;33.30;23.27;;;;;;;;;;5037982;28;25124;-59
2023/10/23 04:47:18;;;;;;;33.50;24.00;;;;;;;;;;5045043;28;25114;-59
2023/10/23 04:49:47;;;;;;;32.55;21.55;;;;;;;;;;5041275;28;25152;-60
2023/10/23 04:52:13;;;;;;;38.35;23.17;;;;;;;;;;5043612;28;25070;-60
2023/10/23 04:54:39;;;;;;;35.78;22.77;;;;;;;;;;5046275;28;25074;-59
2023/10/23 04:57:05;;;;;;;31.00;22.05;;;;;;;;;;5043620;28;25065;-59
2023/10/23 04:59:35;;;;;;;34.35;22.52;;;;;;;;;;5045730;28;25145;-59
2023/10/23 05:02:01;;;;;;;33.72;23.08;;;;;;;;;;5044892;28;25126;-60
2023/10/23 05:04:29;;;;;;;38.25;24.23;;;;;;;;;;5046235;28;25063;-60
2023/10/23 05:06:56;;;;;;;44.55;26.15;;;;;;;;;;5041158;28;25055;-61
2023/10/23 05:09:22;;;;;;;37.65;23.20;;;;;;;;;;5048282;28;25052;-59
2023/10/23 05:11:48;;;;;;;42.35;26.30;;;;;;;;;;5041277;28;25112;-59
2023/10/23 05:14:14;;;;;;;41.35;25.80;;;;;;;;;;5045594;28;25069;-60
2023/10/23 05:16:40;;;;;;;35.50;24.48;;;;;;;;;;5043917;28;25162;-59
2023/10/23 05:19:06;;;;;;;44.75;26.77;;;;;;;;;;5046559;28;25071;-61
2023/10/23 05:21:32;;;;;;;35.88;24.98;;;;;;;;;;5038682;28;25054;-62
2023/10/23 05:23:58;;;;;;;43.25;25.27;;;;;;;;;;5044963;28;25061;-60
2023/10/23 05:26:24;;;;;;;35.08;24.00;;;;;;;;;;5042634;28;25100;-61
2023/10/23 05:28:51;;;;;;;44.47;25.58;;;;;;;;;;5043319;28;25052;-60
2023/10/23 05:31:17;;;;;;;53.85;31.65;;;;;;;;;;5044770;28;25076;-61
2023/10/23 05:33:43;;;;;;;50.08;30.25;;;;;;;;;;5037901;28;25052;-60
2023/10/23 05:36:09;;;;;;;67.55;37.33;;;;;;;;;;5045921;28;25139;-60
2023/10/23 05:38:36;;;;;;;67.95;37.35;;;;;;;;;;5049414;28;25052;-62
2023/10/23 05:41:02;;;;;;;67.13;37.28;;;;;;;;;;5047367;28;25066;-59
2023/10/23 05:43:29;;;;;;;70.43;37.53;;;;;;;;;;5047037;28;25100;-60
2023/10/23 05:45:55;;;;;;;72.03;39.08;;;;;;;;;;5043282;28;25133;-60
2023/10/23 05:48:21;;;;;;;74.50;40.30;;;;;;;;;;5042345;28;25074;-60
2023/10/23 05:51:01;;;;;;;78.40;40.30;;;;;;;;;;5045657;28;25168;-60
2023/10/23 05:53:27;;;;;;;77.80;41.47;;;;;;;;;;5044649;28;25066;-59
2023/10/23 05:55:54;;;;;;;83.80;41.30;;;;;;;;;;5044877;28;25077;-60
2023/10/23 05:58:20;;;;;;;74.32;41.58;;;;;;;;;;5042904;28;25131;-59
2023/10/23 06:00:46;;;;;;;88.70;42.38;;;;;;;;;;5039835;28;25146;-60
2023/10/23 06:03:12;;;;;;;81.05;41.97;;;;;;;;;;5040134;28;25095;-59
2023/10/23 06:05:41;;;;;;;81.93;41.58;;;;;;;;;;5043343;28;25094;-60
2023/10/23 06:08:08;;;;;;;48.63;31.35;;;;;;;;;;5040369;28;25123;-59
2023/10/23 06:10:40;;;;;;;72.28;37.80;;;;;;;;;;5045636;28;25080;-58
2023/10/23 06:13:05;;;;;;;67.20;36.63;;;;;;;;;;5044220;28;25052;-60
2023/10/23 06:15:32;;;;;;;101.93;44.47;;;;;;;;;;5045191;28;25140;-58
2023/10/23 06:17:58;;;;;;;82.50;40.00;;;;;;;;;;5039538;28;25126;-59
2023/10/23 06:20:24;;;;;;;75.13;39.92;;;;;;;;;;5040303;28;25099;-58
2023/10/23 06:22:50;;;;;;;78.28;40.90;;;;;;;;;;5043102;28;25080;-59
2023/10/23 06:25:17;;;;;;;77.15;40.05;;;;;;;;;;5033096;28;25069;-60
2023/10/23 06:27:43;;;;;;;77.93;40.75;;;;;;;;;;5039438;28;25130;-58
2023/10/23 06:30:09;;;;;;;99.70;46.10;;;;;;;;;;5042406;28;25069;-59
2023/10/23 06:32:35;;;;;;;81.32;41.72;;;;;;;;;;5041318;28;25068;-59
2023/10/23 06:35:01;;;;;;;80.68;40.30;;;;;;;;;;5048446;28;25065;-59
2023/10/23 06:37:27;;;;;;;82.22;42.47;;;;;;;;;;5048847;28;25064;-59
2023/10/23 06:39:53;;;;;;;98.97;44.10;;;;;;;;;;5041429;28;25140;-59
2023/10/23 06:42:19;;;;;;;63.05;35.53;;;;;;;;;;5048837;28;25127;-59
2023/10/23 06:44:45;;;;;;;154.88;43.40;;;;;;;;;;5048540;28;25070;-59
2023/10/23 06:47:11;;;;;;;142.32;47.30;;;;;;;;;;5046848;28;25067;-60
2023/10/23 06:49:37;;;;;;;101.38;40.85;;;;;;;;;;5042102;28;25146;-60
2023/10/23 06:52:04;;;;;;;118.20;39.55;;;;;;;;;;5048588;28;25066;-59
2023/10/23 06:54:30;;;;;;;196.90;48.60;;;;;;;;;;5046926;28;25046;-59
2023/10/23 06:56:56;;;;;;;105.80;37.00;;;;;;;;;;5035021;28;25149;-58
2023/10/23 06:59:22;;;;;;;148.30;42.65;;;;;;;;;;5035144;28;25105;-59
2023/10/23 07:01:48;;;;;;;107.70;37.92;;;;;;;;;;5039664;28;25060;-59
2023/10/23 07:04:14;;;;;;;286.65;54.13;;;;;;;;;;5036575;28;25081;-58
2023/10/23 07:06:40;;;;;;;175.30;40.25;;;;;;;;;;5046954;28;25063;-59
2023/10/23 07:09:06;;;;;;;243.55;51.60;;;;;;;;;;5040141;28;25062;-60
2023/10/23 07:11:32;;;;;;;354.25;57.97;;;;;;;;;;5040539;28;25096;-59
2023/10/23 07:13:58;;;;;;;160.77;41.28;;;;;;;;;;5036774;28;25061;-58
2023/10/23 07:16:24;;;;;;;157.38;43.65;;;;;;;;;;5044814;28;25087;-59
2023/10/23 07:18:50;;;;;;;184.98;43.03;;;;;;;;;;5041986;28;25057;-60
2023/10/23 07:21:16;;;;;;;172.73;43.95;;;;;;;;;;5043904;28;25088;-59
2023/10/23 07:23:42;;;;;;;141.48;40.90;;;;;;;;;;5045192;28;25107;-59
2023/10/23 07:26:12;;;;;;;312.67;51.40;;;;;;;;;;5046362;28;25060;-59
2023/10/23 07:28:38;;;;;;;156.48;41.55;;;;;;;;;;5039269;28;25046;-59
2023/10/23 07:31:05;;;;;;;149.07;43.50;;;;;;;;;;5036599;28;25079;-58
2023/10/23 07:33:31;;;;;;;355.35;54.40;;;;;;;;;;5039570;28;25065;-59
2023/10/23 07:36:00;;;;;;;279.10;46.75;;;;;;;;;;5045550;28;25128;-58
2023/10/23 07:38:26;;;;;;;148.38;41.25;;;;;;;;;;5046446;28;25060;-59
2023/10/23 07:40:52;;;;;;;108.95;36.42;;;;;;;;;;5046277;28;25078;-59
2023/10/23 07:43:18;;;;;;;147.45;41.92;;;;;;;;;;5046490;28;25144;-59
2023/10/23 07:45:44;;;;;;;78.03;31.88;;;;;;;;;;5040704;28;25151;-59
2023/10/23 07:48:10;;;;;;;187.98;46.28;;;;;;;;;;5037418;28;25159;-60
2023/10/23 07:50:36;;;;;;;246.40;52.35;;;;;;;;;;5045787;28;25127;-60
2023/10/23 07:53:02;;;;;;;92.05;29.48;;;;;;;;;;5041252;28;25073;-59
2023/10/23 07:55:28;;;;;;;101.60;35.80;;;;;;;;;;5038985;28;25055;-59
2023/10/23 07:57:54;;;;;;;76.40;26.15;;;;;;;;;;5046141;28;25140;-59
2023/10/23 08:00:20;;;;;;;93.32;34.50;;;;;;;;;;5036629;28;25077;-59
2023/10/23 08:02:46;;;;;;;196.57;37.42;;;;;;;;;;5043960;28;25094;-60
2023/10/23 08:05:12;;;;;;;85.82;32.67;;;;;;;;;;5039971;28;25058;-59
2023/10/23 08:07:38;;;;;;;154.70;42.38;;;;;;;;;;5041406;28;25076;-59
2023/10/23 08:10:04;;;;;;;107.35;38.30;;;;;;;;;;5046571;28;25088;-59
2023/10/23 08:12:30;;;;;;;208.77;45.60;;;;;;;;;;5039034;28;25054;-59
2023/10/23 08:14:56;;;;;;;226.98;47.80;;;;;;;;;;5038986;28;25107;-59
2023/10/23 08:17:22;;;;;;;107.07;37.92;;;;;;;;;;5038915;28;25062;-59
2023/10/23 08:19:48;;;;;;;192.05;44.85;;;;;;;;;;5043351;28;25085;-59
2023/10/23 08:22:14;;;;;;;106.22;35.83;;;;;;;;;;5043988;28;25058;-59
2023/10/23 08:24:40;;;;;;;281.23;57.60;;;;;;;;;;5042468;28;25127;-59
2023/10/23 08:27:06;;;;;;;125.85;41.50;;;;;;;;;;5059402;28;25151;-59
2023/10/23 08:29:32;;;;;;;106.43;36.83;;;;;;;;;;5044601;28;25144;-58
2023/10/23 08:31:59;;;;;;;97.40;36.70;;;;;;;;;;5045560;28;25070;-59
2023/10/23 08:34:25;;;;;;;113.20;37.22;;;;;;;;;;5029763;28;25101;-60
2023/10/23 08:36:51;;;;;;;109.80;39.25;;;;;;;;;;5025040;28;25148;-59
2023/10/23 08:39:19;;;;;;;83.70;38.20;;;;;;;;;;5028058;28;25149;-59
2023/10/23 08:41:45;;;;;;;97.10;40.03;;;;;;;;;;5044318;28;25097;-59
2023/10/23 08:44:12;;;;;;;98.38;41.50;;;;;;;;;;5046028;28;25077;-59
2023/10/23 08:46:38;;;;;;;134.82;41.42;;;;;;;;;;5041808;28;25144;-59
2023/10/23 08:49:04;;;;;;;107.45;41.45;;;;;;;;;;5038552;28;25071;-60
2023/10/23 08:51:31;;;;;;;94.60;40.17;;;;;;;;;;5042921;28;25068;-59
2023/10/23 08:54:01;;;;;;;82.75;37.00;;;;;;;;;;5035483;28;25076;-59
2023/10/23 08:56:28;;;;;;;86.00;35.25;;;;;;;;;;5036980;28;25060;-60
2023/10/23 08:58:59;;;;;;;53.50;30.20;;;;;;;;;;5035944;28;25143;-62
2023/10/23 09:01:26;;;;;;;84.25;35.90;;;;;;;;;;5026519;28;25104;-59
2023/10/23 09:03:52;;;;;;;95.60;37.90;;;;;;;;;;5027507;28;25066;-59
2023/10/23 09:06:18;;;;;;;72.55;33.25;;;;;;;;;;5042280;28;25055;-59
2023/10/23 09:08:44;;;;;;;84.13;34.05;;;;;;;;;;5041468;28;25094;-59
2023/10/23 09:11:10;;;;;;;94.45;38.97;;;;;;;;;;5035005;28;25056;-59
2023/10/23 09:13:38;;;;;;;72.55;33.22;;;;;;;;;;5044904;28;25097;-59
2023/10/23 09:16:07;;;;;;;82.85;36.38;;;;;;;;;;5036760;28;25051;-60
2023/10/23 09:18:34;;;;;;;75.47;34.58;;;;;;;;;;5038972;28;25072;-59
2023/10/23 09:21:00;;;;;;;68.70;32.75;;;;;;;;;;5042723;28;25062;-59
2023/10/23 09:23:27;;;;;;;60.05;29.80;;;;;;;;;;5038021;28;25080;-60
2023/10/23 09:25:57;;;;;;;77.53;33.47;;;;;;;;;;5037964;28;25156;-59
2023/10/23 09:28:23;;;;;;;63.20;30.98;;;;;;;;;;5042188;28;25067;-59
2023/10/23 09:30:49;;;;;;;65.43;31.17;;;;;;;;;;5033922;28;25074;-59
2023/10/23 09:33:16;;;;;;;51.55;27.95;;;;;;;;;;5039449;28;25104;-59
2023/10/23 09:35:42;;;;;;;58.40;30.40;;;;;;;;;;5035021;28;25130;-59
2023/10/23 09:38:12;;;;;;;46.35;26.48;;;;;;;;;;5036386;28;25152;-59
2023/10/23 09:40:38;;;;;;;54.03;27.95;;;;;;;;;;5037372;28;25096;-59
2023/10/23 09:43:04;;;;;;;48.83;25.75;;;;;;;;;;5043918;28;25054;-58
2023/10/23 09:45:31;;;;;;;42.53;25.20;;;;;;;;;;5035648;28;25139;-59
2023/10/23 09:47:58;;;;;;;48.28;26.70;;;;;;;;;;5039979;28;25058;-56
2023/10/23 09:50:25;;;;;;;43.10;23.52;;;;;;;;;;5043181;28;25056;-59
2023/10/23 09:52:52;;;;;;;46.50;24.85;;;;;;;;;;5011835;28;25056;-60
2023/10/23 09:55:19;;;;;;;39.58;23.42;;;;;;;;;;5037135;28;25111;-60
2023/10/23 09:57:46;;;;;;;34.05;21.17;;;;;;;;;;5032082;28;25048;-59
2023/10/23 10:00:16;;;;;;;36.13;20.88;;;;;;;;;;5044698;28;25078;-59
2023/10/23 10:02:46;;;;;;;26.98;18.17;;;;;;;;;;5033056;28;25136;-59
2023/10/23 10:05:16;;;;;;;29.25;19.73;;;;;;;;;;5037719;28;25089;-61
2023/10/23 10:07:49;;;;;;;32.50;19.30;;;;;;;;;;5036226;28;25078;-58
2023/10/23 10:10:15;;;;;;;29.98;19.13;;;;;;;;;;5042006;28;25078;-58
2023/10/23 10:12:41;;;;;;;28.27;19.08;;;;;;;;;;5041175;28;25120;-61
2023/10/23 10:15:11;;;;;;;33.90;18.70;;;;;;;;;;5039024;28;25163;-58
2023/10/23 10:17:38;;;;;;;32.08;19.63;;;;;;;;;;5039733;28;25138;-58
2023/10/23 10:20:05;;;;;;;31.58;16.02;;;;;;;;;;5041363;28;25071;-59
2023/10/23 10:22:34;;;;;;;29.73;17.65;;;;;;;;;;5036080;28;25052;-59
2023/10/23 10:25:00;;;;;;;25.70;16.83;;;;;;;;;;5041815;28;25070;-60
2023/10/23 10:27:26;;;;;;;24.08;16.52;;;;;;;;;;5038348;28;25153;-60
2023/10/23 10:29:52;;;;;;;26.58;16.33;;;;;;;;;;5041114;28;25113;-58
2023/10/23 10:32:20;;;;;;;22.05;15.00;;;;;;;;;;5041863;28;25088;-59
2023/10/23 10:34:46;;;;;;;29.10;16.02;;;;;;;;;;5039289;28;25083;-59
2023/10/23 10:37:12;;;;;;;27.10;15.20;;;;;;;;;;5041517;28;25096;-59
2023/10/23 10:39:53;;;;;;;20.65;13.48;;;;;;;;;;5032668;28;25046;-59
2023/10/23 10:42:20;;;;;;;25.23;16.90;;;;;;;;;;5042083;28;25079;-59
2023/10/23 10:44:59;;;;;;;24.88;15.85;;;;;;;;;;5033366;28;25069;-59
2023/10/23 10:47:44;;;;;;;25.98;15.23;;;;;;;;;;5042975;28;25065;-59
2023/10/23 10:50:10;;;;;;;27.58;15.38;;;;;;;;;;5037138;28;25085;-59
2023/10/23 10:52:37;;;;;;;32.92;16.25;;;;;;;;;;5025770;28;25033;-59
2023/10/23 10:55:06;;;;;;;26.08;14.40;;;;;;;;;;5023579;28;25064;-59
2023/10/23 10:57:34;;;;;;;23.63;14.40;;;;;;;;;;5021392;28;25067;-60
2023/10/23 11:00:00;;;;;;;24.58;13.50;;;;;;;;;;5023331;28;25062;-58
2023/10/23 11:02:26;;;;;;;27.88;14.32;;;;;;;;;;5022942;28;25065;-60
2023/10/23 11:04:52;;;;;;;25.65;14.00;;;;;;;;;;5028378;28;25107;-60
2023/10/23 11:07:24;;;;;;;25.38;13.13;;;;;;;;;;5039339;28;25087;-60
2023/10/23 11:09:51;;;;;;;21.48;14.18;;;;;;;;;;5039229;28;25074;-59
2023/10/23 11:12:21;;;;;;;18.80;12.98;;;;;;;;;;5041943;28;25088;-60
2023/10/23 11:14:47;;;;;;;24.40;13.27;;;;;;;;;;5033926;28;25052;-59
2023/10/23 11:17:13;;;;;;;22.60;13.52;;;;;;;;;;5041130;28;25046;-59
2023/10/23 11:19:41;;;;;;;25.25;13.32;;;;;;;;;;5039458;28;25056;-59
2023/10/23 11:22:11;;;;;;;20.40;11.80;;;;;;;;;;5038829;28;25067;-59
2023/10/23 11:24:38;;;;;;;25.52;14.27;;;;;;;;;;5036518;28;25073;-59
2023/10/23 11:27:07;;;;;;;22.63;13.50;;;;;;;;;;5047972;28;25119;-58
2023/10/23 11:29:45;;;;;;;27.00;13.80;;;;;;;;;;5044380;28;25064;-58
2023/10/23 11:32:12;;;;;;;20.40;11.25;;;;;;;;;;5041263;28;25075;-59
2023/10/23 11:34:38;;;;;;;20.25;10.77;;;;;;;;;;5036272;28;25084;-60
2023/10/23 11:37:05;;;;;;;21.52;10.70;;;;;;;;;;5037126;28;25086;-58
2023/10/23 11:39:31;;;;;;;20.77;10.10;;;;;;;;;;5040878;28;25070;-59
2023/10/23 11:41:58;;;;;;;17.80;9.85;;;;;;;;;;5043900;28;25078;-61
2023/10/23 11:44:25;;;;;;;22.92;9.95;;;;;;;;;;5040611;28;25070;-59
2023/10/23 11:46:53;;;;;;;15.32;9.18;;;;;;;;;;5039640;28;25080;-59
2023/10/23 11:49:25;;;;;;;18.35;10.38;;;;;;;;;;5042091;28;25059;-59
2023/10/23 11:51:52;;;;;;;17.55;11.60;;;;;;;;;;5042689;28;25067;-60
2023/10/23 11:54:18;;;;;;;19.63;11.15;;;;;;;;;;5041515;28;25066;-59
2023/10/23 11:56:44;;;;;;;22.40;12.65;;;;;;;;;;5046203;28;25057;-59
2023/10/23 11:59:20;;;;;;;25.63;13.02;;;;;;;;;;5043540;28;25090;-61
2023/10/23 12:01:47;;;;;;;19.48;12.05;;;;;;;;;;5035328;28;25054;-60
2023/10/23 12:04:13;;;;;;;23.30;12.50;;;;;;;;;;5041450;28;25118;-59
2023/10/23 12:06:40;;;;;;;22.88;11.82;;;;;;;;;;5044621;28;25061;-59
2023/10/23 12:09:10;;;;;;;18.45;11.13;;;;;;;;;;5043297;28;25145;-60
2023/10/23 12:11:37;;;;;;;20.55;11.27;;;;;;;;;;5037405;28;25061;-59
2023/10/23 12:14:03;;;;;;;21.65;12.85;;;;;;;;;;5045511;28;25124;-59
2023/10/23 12:16:33;;;;;;;22.90;11.80;;;;;;;;;;5037383;28;25099;-59
2023/10/23 12:18:59;;;;;;;22.02;12.07;;;;;;;;;;5045589;28;25062;-60
2023/10/23 12:21:26;;;;;;;21.02;13.10;;;;;;;;;;5041583;28;25064;-59
2023/10/23 12:23:52;;;;;;;18.73;11.25;;;;;;;;;;5044157;28;25081;-59
2023/10/23 12:26:18;;;;;;;25.30;13.15;;;;;;;;;;5045786;28;25132;-61
2023/10/23 12:28:44;;;;;;;18.15;11.65;;;;;;;;;;5039236;28;25053;-60
2023/10/23 12:31:10;;;;;;;21.80;11.45;;;;;;;;;;5045000;28;25075;-59
2023/10/23 12:33:36;;;;;;;19.17;10.43;;;;;;;;;;5040914;28;25138;-59
2023/10/23 12:36:05;;;;;;;21.83;10.38;;;;;;;;;;5037134;28;25064;-59
2023/10/23 12:38:33;;;;;;;18.65;11.20;;;;;;;;;;5038066;28;25139;-58
2023/10/23 12:40:59;;;;;;;16.17;9.52;;;;;;;;;;5042932;28;25069;-61
2023/10/23 12:43:25;;;;;;;18.73;10.60;;;;;;;;;;5037895;28;25080;-61
2023/10/23 12:45:51;;;;;;;17.55;9.38;;;;;;;;;;5038046;28;25149;-60
2023/10/23 12:48:17;;;;;;;17.27;9.93;;;;;;;;;;5034665;28;25052;-59
2023/10/23 12:50:43;;;;;;;15.60;9.45;;;;;;;;;;5041341;28;25376;-59
2023/10/23 12:53:10;;;;;;;21.52;9.38;;;;;;;;;;5039173;28;25067;-60
2023/10/23 12:55:36;;;;;;;17.15;9.52;;;;;;;;;;5033630;28;25067;-59
2023/10/23 12:58:02;;;;;;;17.65;9.20;;;;;;;;;;5045302;28;25157;-60
2023/10/23 13:00:28;;;;;;;14.55;8.60;;;;;;;;;;5039673;28;25080;-60
2023/10/23 13:02:54;;;;;;;18.42;8.25;;;;;;;;;;5042475;28;25067;-60
2023/10/23 13:05:20;;;;;;;18.13;8.90;;;;;;;;;;5038160;28;25064;-59
2023/10/23 13:07:46;;;;;;;15.65;9.15;;;;;;;;;;5040049;28;25063;-60
2023/10/23 13:10:12;;;;;;;19.58;9.60;;;;;;;;;;5043954;28;25131;-60
2023/10/23 13:12:38;;;;;;;19.42;8.80;;;;;;;;;;5037636;28;25073;-60
2023/10/23 13:15:05;;;;;;;19.10;8.85;;;;;;;;;;5046312;28;25057;-59
2023/10/23 13:17:31;;;;;;;16.83;9.63;;;;;;;;;;5033294;28;25073;-59
2023/10/23 13:19:57;;;;;;;19.80;9.48;;;;;;;;;;5039305;28;25103;-59
2023/10/23 13:22:23;;;;;;;20.80;9.45;;;;;;;;;;5039385;28;25086;-60
2023/10/23 13:24:49;;;;;;;19.15;9.82;;;;;;;;;;5036286;28;25138;-60
2023/10/23 13:27:18;;;;;;;17.95;10.38;;;;;;;;;;5036951;28;25134;-59
2023/10/23 13:29:45;;;;;;;22.08;10.23;;;;;;;;;;5041914;28;25062;-60
2023/10/23 13:32:14;;;;;;;18.10;10.40;;;;;;;;;;5041654;28;25097;-60
2023/10/23 13:34:41;;;;;;;18.98;10.15;;;;;;;;;;5032465;28;25051;-59
2023/10/23 13:37:07;;;;;;;18.15;10.20;;;;;;;;;;5044437;28;25163;-60
2023/10/23 13:39:33;;;;;;;21.17;11.38;;;;;;;;;;5033700;28;25090;-60
2023/10/23 13:41:59;;;;;;;19.83;11.32;;;;;;;;;;5039547;28;25149;-60
2023/10/23 13:44:25;;;;;;;20.20;11.40;;;;;;;;;;5035868;28;25061;-60
2023/10/23 13:46:51;;;;;;;15.13;11.13;;;;;;;;;;5043456;28;25159;-61
2023/10/23 13:49:17;;;;;;;21.88;11.70;;;;;;;;;;5035768;28;25101;-60
2023/10/23 13:51:43;;;;;;;22.52;11.63;;;;;;;;;;5042987;28;25103;-60
2023/10/23 13:54:09;;;;;;;19.48;12.52;;;;;;;;;;5041849;28;25090;-58
2023/10/23 13:56:35;;;;;;;19.92;12.02;;;;;;;;;;5039800;28;25115;-61
2023/10/23 13:59:01;;;;;;;22.70;12.60;;;;;;;;;;5040872;28;25074;-60
2023/10/23 14:01:27;;;;;;;22.83;12.85;;;;;;;;;;5043036;28;25064;-60
2023/10/23 14:03:53;;;;;;;18.92;12.07;;;;;;;;;;5037213;28;25098;-60
2023/10/23 14:06:19;;;;;;;21.17;12.80;;;;;;;;;;5037814;28;25126;-59
2023/10/23 14:08:45;;;;;;;20.75;11.70;;;;;;;;;;5038861;28;25061;-58
2023/10/23 14:11:11;;;;;;;23.90;11.73;;;;;;;;;;5039730;28;25087;-60
2023/10/23 14:13:37;;;;;;;26.25;13.55;;;;;;;;;;5041949;28;25065;-59